Alto Parnaiba, Brazil
Current Conditions -  °F | °C
As of 5:00 PM on Thursday 18 Dec 2014 (Local Time) from SBPJ Reporting Station
Scattered Clouds Scattered Clouds  
Wind Chill: 82°   Ceiling: Unl
Heat Index: 88°   Visibility: 6mi
Dew Point: 73°   Wind: 3mph
Humidity: 74%   Direction: 10°N
Pressure: 29.77"   Gusts: NA
Location:  9.11°S, 45.93°W
Report Text: SBPJ 182000Z 01003KT 9999 SCT025 FEW030TCU 28/23 Q1008
Loading
Personal Weather Stations






























Interactive Weather Map New forecast layout! Learn more

10-Day Weather Forecast

Advertisements
Track Severe Weather on mobile